Etusivu
METAR-TAF:

METAR-TAF

Lentoasemat :

Orr Regional Airport

Orr, Minnesota, Yhdysvallat

Leveyspiiri: 48-01N, Pituuspiiri: 092-52W, korkeus merenpinnasta: 397 m

Tämänhetkinen sää

Tämä raportti tehtiin 9 minuuttia sitten, kello 03.53 UTC
tyyntä
Lämpötila -4°C
Kosteus 39%
Ilmanpaine 1027 hPa
Näkyvyys: 16.1 km
selkeää

METAR: KORB 260353Z AUTO 00000KT 10SM CLR M04/M16 A3033 RMK AO2

Aika: 23:02 (04:02 UTC)


TAF: puuttuu

Säähavainnot ja -ennusteet yli 4000 lentoasemalta (METAR- ja TAF-raportit).

Käytössä olevat sääasemat on merkitty karttaan keltaisilla ja punaisilla pisteillä.

Aseta hiiri pisteen päälle nähdäksesi sääaseman nimen.

Klikkaa sitten nähdäksesi säähavainnot ja -ennusteet.

Kartan vaihtaminen: klikkaa mustalla rastilla varustettuja vihreitä pisteitä, niin voit zoomata sisään; viivalla varustettua vihreää pistettä, niin voit zoomata ulos tai vihreitä nuolia, niin pääset viereisille kartoille.


METAR-TAF: